Moorland, Iowa
Current Conditions -  °F | °C
As of 5:15 AM on Monday 22 Dec 2014 (Local Time) from KFOD Reporting Station
Overcast Overcast  
Wind Chill: 31°   Ceiling: 500
Heat Index: 39°   Visibility: 4mi
Dew Point: 36°   Wind: 15mph
Humidity: 87%   Direction: 150°SSE
Pressure: 29.63"   Gusts: 21mph
Location:  42.44°N, 94.29°W
Report Text: KFOD 221115Z AUTO 15013G18KT 4SM OVC005 04/02 A2963 RMK AO1
Loading
Personal Weather Stations






























Interactive Weather Map New forecast layout! Learn more

10-Day Weather Forecast

Advertisements
Track Severe Weather on mobile